SKBQ/BAQ METAR and TAF weather

Enter ICAO airport designator
Station Type Date Time Source
SKBQ METAR 2020/03/28 09:00 UTC NOAA

SKBQ 280900Z 01009KT CAVOK 26/22 A2974 NOSIG


Station Type Date Time Source
SKBQ Decoded METAR 2020/03/28 09:00 UTC NOAA

Barranquilla / Ernestocortissoz, Colombia (SKBQ) 10-53N 074-47W 30M
Mar 28, 2020 - 05:00 AM EDT / 2020.03.28 0900 UTC
Wind: from the N (010 degrees) at 10 MPH (9 KT):0
Visibility: greater than 7 mile(s):0
Temperature: 78 F (26 C)
Dew Point: 71 F (22 C)
Relative Humidity: 78%
Pressure (altimeter): 29.74 in. Hg (1007 hPa)
ob: SKBQ 280900Z 01009KT CAVOK 26/22 A2974 NOSIG
cycle: 9

Station Type Date Time Source
SKBQ TAF 2020/03/28 06:51 UTC NOAA

TAF SKBQ 280430Z 2806/2906 36014KT CAVOK
BECMG 2809/2811 04004KT
TEMPO 2811/2813 5000 BCFG FEW012
BECMG 2816/2818 01018KT TX33/2817Z TN25/2810Z

Example: see airport list